< Typhoon 196019 1960 Season Typhoon 196021 >
Typhoon 196020 (HESTER)
General InformationTrack Information on Google Maps || Disaster Info.ResourceGoogle EarthGE AnimationAtom FeedGeoJSON
Detalied Best Track (Time Zone = UTC)
Year Month Day Hour Lat. Long. Pressure (hPa) Wind (kt) Class Image Chart
1960 9 4 00 14.7 148.0 1008 0 2 -- Chart
1960 9 4 06 15.3 147.6 1006 0 2 -- Chart
1960 9 4 12 15.8 147.2 1006 0 2 -- Chart
1960 9 4 18 16.3 146.7 1006 0 2 -- Chart
1960 9 5 00 17.0 146.0 1002 0 9 -- Chart
1960 9 5 06 17.5 145.3 1002 0 9 -- Chart
1960 9 5 12 18.1 145.1 1002 0 9 -- Chart
1960 9 5 18 18.7 145.2 1002 0 9 -- Chart
1960 9 6 00 19.4 145.4 1006 0 9 -- Chart
1960 9 6 06 20.1 145.6 1006 0 9 -- Chart
1960 9 6 12 20.9 145.8 1006 0 9 -- Chart
1960 9 6 18 21.4 146.1 1008 0 9 -- Chart
1960 9 7 00 21.8 146.5 1008 0 9 -- Chart
1960 9 7 06 22.3 146.8 1006 0 9 -- Chart
1960 9 7 12 22.7 146.8 1006 0 9 -- Chart
1960 9 7 18 22.8 146.3 1006 0 9 -- Chart
1960 9 8 00 22.8 145.6 1004 0 9 -- Chart
1960 9 8 06 22.8 144.9 1000 0 9 -- Chart
1960 9 8 12 23.1 144.3 1002 0 9 -- Chart
1960 9 8 18 23.3 143.6 1004 0 9 -- Chart
1960 9 9 00 23.4 143.0 1006 0 9 -- Chart
1960 9 9 06 23.4 141.8 1006 0 9 -- Chart
1960 9 9 12 23.3 140.5 1008 0 9 -- Chart
1960 9 9 18 23.3 139.2 1010 0 2 -- Chart
1960 9 10 00 24.1 138.1 1012 0 2 -- Chart
1960 9 10 06 25.2 137.5 1012 0 2 -- Chart
1960 9 10 12 26.4 136.7 1012 0 2 -- Chart
1960 9 10 18 27.5 136.0 1012 0 2 -- Chart
1960 9 11 00 28.4 135.2 1014 0 2 -- Chart
1960 9 11 06 29.4 134.8 1012 0 2 -- Chart
1960 9 11 12 30.2 134.3 1014 0 2 -- Chart
Japan Meteorological Agency Best Track Data | Correction Date : 1989-06-01
< Typhoon 196019 1960 Season Typhoon 196021 >

Help